sensor_id;sensor_type;location;lat;lon;timestamp;pressure;altitude;pressure_sealevel;temperature;humidity
56070;BME280;41944;52.078;-0.058;2023-02-11T00:01:21;103228.44;;;8.19;100.00
56070;BME280;41944;52.078;-0.058;2023-02-11T00:03:48;103228.88;;;8.25;100.00
56070;BME280;41944;52.078;-0.058;2023-02-11T00:06:15;103233.16;;;8.25;100.00
56070;BME280;41944;52.078;-0.058;2023-02-11T00:08:43;103235.81;;;8.26;100.00
56070;BME280;41944;52.078;-0.058;2023-02-11T00:11:13;103240.02;;;8.24;100.00
56070;BME280;41944;52.078;-0.058;2023-02-11T00:13:40;103241.86;;;8.31;100.00
56070;BME280;41944;52.078;-0.058;2023-02-11T00:16:09;103245.19;;;8.29;100.00
56070;BME280;41944;52.078;-0.058;2023-02-11T00:18:36;103242.11;;;8.46;100.00
56070;BME280;41944;52.078;-0.058;2023-02-11T00:21:06;103246.02;;;8.53;100.00
56070;BME280;41944;52.078;-0.058;2023-02-11T00:23:34;103248.92;;;8.37;100.00
56070;BME280;41944;52.078;-0.058;2023-02-11T00:26:03;103249.98;;;8.30;100.00
56070;BME280;41944;52.078;-0.058;2023-02-11T00:28:30;103249.38;;;8.24;100.00
56070;BME280;41944;52.078;-0.058;2023-02-11T00:30:57;103250.07;;;8.32;100.00
56070;BME280;41944;52.078;-0.058;2023-02-11T00:33:24;103253.71;;;8.55;100.00
56070;BME280;41944;52.078;-0.058;2023-02-11T00:35:51;103257.63;;;8.59;100.00
56070;BME280;41944;52.078;-0.058;2023-02-11T00:38:18;103253.24;;;8.68;100.00
56070;BME280;41944;52.078;-0.058;2023-02-11T00:40:45;103251.06;;;8.80;100.00
56070;BME280;41944;52.078;-0.058;2023-02-11T00:43:12;103245.58;;;8.80;100.00
56070;BME280;41944;52.078;-0.058;2023-02-11T00:45:39;103244.09;;;8.90;100.00
56070;BME280;41944;52.078;-0.058;2023-02-11T00:48:06;103244.46;;;8.93;100.00
56070;BME280;41944;52.078;-0.058;2023-02-11T00:50:33;103241.08;;;8.97;100.00
56070;BME280;41944;52.078;-0.058;2023-02-11T00:53:00;103238.50;;;8.95;100.00
56070;BME280;41944;52.078;-0.058;2023-02-11T00:55:27;103231.79;;;9.10;100.00
56070;BME280;41944;52.078;-0.058;2023-02-11T00:57:54;103227.63;;;9.05;100.00
56070;BME280;41944;52.078;-0.058;2023-02-11T01:00:21;103230.03;;;9.13;100.00
56070;BME280;41944;52.078;-0.058;2023-02-11T01:02:48;103224.80;;;9.21;100.00
56070;BME280;41944;52.078;-0.058;2023-02-11T01:05:15;103215.98;;;9.20;100.00
56070;BME280;41944;52.078;-0.058;2023-02-11T01:07:42;103211.13;;;9.21;100.00
56070;BME280;41944;52.078;-0.058;2023-02-11T01:10:10;103211.10;;;9.22;100.00
56070;BME280;41944;52.078;-0.058;2023-02-11T01:12:38;103212.01;;;9.16;100.00
56070;BME280;41944;52.078;-0.058;2023-02-11T01:15:07;103209.98;;;9.09;100.00
56070;BME280;41944;52.078;-0.058;2023-02-11T01:17:35;103212.70;;;9.05;100.00
56070;BME280;41944;52.078;-0.058;2023-02-11T01:20:03;103215.97;;;9.01;100.00
56070;BME280;41944;52.078;-0.058;2023-02-11T01:22:30;103218.64;;;8.97;100.00
56070;BME280;41944;52.078;-0.058;2023-02-11T01:24:57;103217.18;;;8.99;100.00
56070;BME280;41944;52.078;-0.058;2023-02-11T01:27:23;103219.59;;;8.94;100.00
56070;BME280;41944;52.078;-0.058;2023-02-11T01:29:51;103219.21;;;9.06;100.00
56070;BME280;41944;52.078;-0.058;2023-02-11T01:32:18;103220.81;;;8.98;100.00
56070;BME280;41944;52.078;-0.058;2023-02-11T01:34:45;103226.68;;;9.01;100.00
56070;BME280;41944;52.078;-0.058;2023-02-11T01:37:12;103222.66;;;8.97;100.00
56070;BME280;41944;52.078;-0.058;2023-02-11T01:39:40;103222.57;;;9.03;100.00
56070;BME280;41944;52.078;-0.058;2023-02-11T01:42:10;103219.04;;;9.02;100.00
56070;BME280;41944;52.078;-0.058;2023-02-11T01:44:38;103215.73;;;9.02;100.00
56070;BME280;41944;52.078;-0.058;2023-02-11T01:47:06;103216.63;;;9.11;100.00
56070;BME280;41944;52.078;-0.058;2023-02-11T01:49:35;103212.79;;;8.99;100.00
56070;BME280;41944;52.078;-0.058;2023-02-11T01:52:08;103211.17;;;9.05;100.00
56070;BME280;41944;52.078;-0.058;2023-02-11T01:54:40;103210.12;;;9.03;100.00
56070;BME280;41944;52.078;-0.058;2023-02-11T01:57:10;103209.12;;;9.10;100.00
56070;BME280;41944;52.078;-0.058;2023-02-11T01:59:42;103211.34;;;9.00;100.00
56070;BME280;41944;52.078;-0.058;2023-02-11T02:02:12;103211.95;;;9.05;100.00
56070;BME280;41944;52.078;-0.058;2023-02-11T02:04:47;103215.87;;;9.18;100.00
56070;BME280;41944;52.078;-0.058;2023-02-11T02:07:22;103210.75;;;9.14;100.00
56070;BME280;41944;52.078;-0.058;2023-02-11T02:09:57;103203.30;;;9.13;100.00
56070;BME280;41944;52.078;-0.058;2023-02-11T02:12:25;103194.35;;;9.06;100.00
56070;BME280;41944;52.078;-0.058;2023-02-11T02:15:17;103191.32;;;9.11;100.00
56070;BME280;41944;52.078;-0.058;2023-02-11T02:17:53;103189.95;;;9.02;100.00
56070;BME280;41944;52.078;-0.058;2023-02-11T02:21:44;103191.59;;;8.95;100.00
56070;BME280;41944;52.078;-0.058;2023-02-11T02:24:30;103193.94;;;8.93;100.00
56070;BME280;41944;52.078;-0.058;2023-02-11T02:27:18;103196.11;;;8.77;100.00
56070;BME280;41944;52.078;-0.058;2023-02-11T02:30:21;103191.45;;;8.64;100.00
56070;BME280;41944;52.078;-0.058;2023-02-11T02:33:00;103188.50;;;8.56;100.00
56070;BME280;41944;52.078;-0.058;2023-02-11T02:35:37;103185.43;;;8.48;100.00
56070;BME280;41944;52.078;-0.058;2023-02-11T02:38:13;103184.18;;;8.45;100.00
56070;BME280;41944;52.078;-0.058;2023-02-11T02:40:45;103185.99;;;8.40;100.00
56070;BME280;41944;52.078;-0.058;2023-02-11T02:43:15;103185.31;;;8.30;100.00
56070;BME280;41944;52.078;-0.058;2023-02-11T02:45:42;103183.53;;;8.21;100.00
56070;BME280;41944;52.078;-0.058;2023-02-11T02:48:24;103180.12;;;8.24;100.00
56070;BME280;41944;52.078;-0.058;2023-02-11T02:50:57;103177.65;;;8.24;100.00
56070;BME280;41944;52.078;-0.058;2023-02-11T02:53:36;103180.21;;;8.09;100.00
56070;BME280;41944;52.078;-0.058;2023-02-11T02:56:12;103181.46;;;7.94;100.00
56070;BME280;41944;52.078;-0.058;2023-02-11T02:58:56;103179.96;;;7.87;100.00
56070;BME280;41944;52.078;-0.058;2023-02-11T03:01:36;103175.77;;;7.85;100.00
56070;BME280;41944;52.078;-0.058;2023-02-11T03:04:12;103172.41;;;7.89;100.00
56070;BME280;41944;52.078;-0.058;2023-02-11T03:06:48;103167.87;;;7.89;100.00
56070;BME280;41944;52.078;-0.058;2023-02-11T03:09:22;103168.65;;;7.67;100.00
56070;BME280;41944;52.078;-0.058;2023-02-11T03:11:51;103168.93;;;7.61;100.00
56070;BME280;41944;52.078;-0.058;2023-02-11T03:14:21;103170.30;;;7.85;100.00
56070;BME280;41944;52.078;-0.058;2023-02-11T03:16:51;103168.04;;;7.74;100.00
56070;BME280;41944;52.078;-0.058;2023-02-11T03:19:22;103167.79;;;7.54;100.00
56070;BME280;41944;52.078;-0.058;2023-02-11T03:21:51;103169.80;;;7.67;100.00
56070;BME280;41944;52.078;-0.058;2023-02-11T03:24:23;103170.55;;;7.59;100.00
56070;BME280;41944;52.078;-0.058;2023-02-11T03:26:55;103164.20;;;7.40;100.00
56070;BME280;41944;52.078;-0.058;2023-02-11T03:29:30;103164.52;;;7.17;100.00
56070;BME280;41944;52.078;-0.058;2023-02-11T03:32:05;103164.28;;;7.12;100.00
56070;BME280;41944;52.078;-0.058;2023-02-11T03:34:39;103167.36;;;7.14;100.00
56070;BME280;41944;52.078;-0.058;2023-02-11T03:37:10;103166.18;;;7.23;100.00
56070;BME280;41944;52.078;-0.058;2023-02-11T03:39:43;103160.97;;;7.17;100.00
56070;BME280;41944;52.078;-0.058;2023-02-11T03:42:13;103158.47;;;7.09;100.00
56070;BME280;41944;52.078;-0.058;2023-02-11T03:44:47;103160.05;;;7.09;100.00
56070;BME280;41944;52.078;-0.058;2023-02-11T03:47:18;103160.35;;;7.25;100.00
56070;BME280;41944;52.078;-0.058;2023-02-11T03:49:49;103160.39;;;7.19;100.00
56070;BME280;41944;52.078;-0.058;2023-02-11T03:52:18;103156.88;;;6.99;100.00
56070;BME280;41944;52.078;-0.058;2023-02-11T03:54:50;103164.82;;;7.16;100.00
56070;BME280;41944;52.078;-0.058;2023-02-11T03:57:19;103168.97;;;7.05;100.00
56070;BME280;41944;52.078;-0.058;2023-02-11T03:59:52;103169.96;;;6.98;100.00
56070;BME280;41944;52.078;-0.058;2023-02-11T04:02:19;103172.63;;;6.91;100.00
56070;BME280;41944;52.078;-0.058;2023-02-11T04:04:47;103173.60;;;6.88;100.00
56070;BME280;41944;52.078;-0.058;2023-02-11T04:07:14;103169.60;;;6.96;100.00
56070;BME280;41944;52.078;-0.058;2023-02-11T04:09:42;103172.27;;;6.82;100.00
56070;BME280;41944;52.078;-0.058;2023-02-11T04:12:09;103179.48;;;6.87;100.00
56070;BME280;41944;52.078;-0.058;2023-02-11T04:14:36;103185.00;;;6.94;100.00
56070;BME280;41944;52.078;-0.058;2023-02-11T04:17:04;103189.12;;;6.93;100.00
56070;BME280;41944;52.078;-0.058;2023-02-11T04:19:32;103189.02;;;6.96;100.00
56070;BME280;41944;52.078;-0.058;2023-02-11T04:21:59;103188.00;;;6.99;100.00
56070;BME280;41944;52.078;-0.058;2023-02-11T04:24:26;103182.99;;;6.90;100.00
56070;BME280;41944;52.078;-0.058;2023-02-11T04:26:53;103179.14;;;6.80;100.00
56070;BME280;41944;52.078;-0.058;2023-02-11T04:29:20;103186.08;;;6.72;100.00
56070;BME280;41944;52.078;-0.058;2023-02-11T04:31:48;103188.14;;;6.61;100.00
56070;BME280;41944;52.078;-0.058;2023-02-11T04:34:15;103190.93;;;6.60;100.00
56070;BME280;41944;52.078;-0.058;2023-02-11T04:36:42;103191.24;;;6.58;100.00
56070;BME280;41944;52.078;-0.058;2023-02-11T04:39:09;103191.66;;;6.63;100.00
56070;BME280;41944;52.078;-0.058;2023-02-11T04:41:36;103194.44;;;6.59;100.00
56070;BME280;41944;52.078;-0.058;2023-02-11T04:44:04;103193.26;;;6.49;100.00
56070;BME280;41944;52.078;-0.058;2023-02-11T04:46:31;103194.32;;;6.39;100.00
56070;BME280;41944;52.078;-0.058;2023-02-11T04:48:58;103198.05;;;6.24;100.00
56070;BME280;41944;52.078;-0.058;2023-02-11T04:51:26;103202.17;;;6.21;100.00
56070;BME280;41944;52.078;-0.058;2023-02-11T04:53:54;103209.82;;;6.16;100.00
56070;BME280;41944;52.078;-0.058;2023-02-11T04:56:21;103213.51;;;6.13;100.00
56070;BME280;41944;52.078;-0.058;2023-02-11T04:58:48;103222.64;;;6.08;100.00
56070;BME280;41944;52.078;-0.058;2023-02-11T05:01:15;103220.70;;;6.00;100.00
56070;BME280;41944;52.078;-0.058;2023-02-11T05:03:42;103223.32;;;5.89;100.00
56070;BME280;41944;52.078;-0.058;2023-02-11T05:06:10;103223.75;;;5.84;100.00
56070;BME280;41944;52.078;-0.058;2023-02-11T05:08:37;103225.23;;;5.78;100.00
56070;BME280;41944;52.078;-0.058;2023-02-11T05:11:05;103224.73;;;5.66;100.00
56070;BME280;41944;52.078;-0.058;2023-02-11T05:13:33;103224.37;;;5.57;100.00
56070;BME280;41944;52.078;-0.058;2023-02-11T05:15:59;103225.98;;;5.46;100.00
56070;BME280;41944;52.078;-0.058;2023-02-11T05:18:26;103229.72;;;5.42;100.00
56070;BME280;41944;52.078;-0.058;2023-02-11T05:20:54;103234.57;;;5.44;100.00
56070;BME280;41944;52.078;-0.058;2023-02-11T05:23:21;103238.61;;;5.44;100.00
56070;BME280;41944;52.078;-0.058;2023-02-11T05:25:48;103238.04;;;5.39;100.00
56070;BME280;41944;52.078;-0.058;2023-02-11T05:28:15;103239.01;;;5.34;100.00
56070;BME280;41944;52.078;-0.058;2023-02-11T05:30:43;103234.75;;;5.34;100.00
56070;BME280;41944;52.078;-0.058;2023-02-11T05:33:10;103235.56;;;5.35;100.00
56070;BME280;41944;52.078;-0.058;2023-02-11T05:35:37;103239.12;;;5.33;100.00
56070;BME280;41944;52.078;-0.058;2023-02-11T05:38:04;103238.11;;;5.30;100.00
56070;BME280;41944;52.078;-0.058;2023-02-11T05:40:31;103238.75;;;5.24;100.00
56070;BME280;41944;52.078;-0.058;2023-02-11T05:42:58;103234.92;;;5.25;100.00
56070;BME280;41944;52.078;-0.058;2023-02-11T05:45:26;103233.65;;;5.27;100.00
56070;BME280;41944;52.078;-0.058;2023-02-11T05:47:53;103231.58;;;5.35;100.00
56070;BME280;41944;52.078;-0.058;2023-02-11T05:50:20;103232.19;;;5.41;100.00
56070;BME280;41944;52.078;-0.058;2023-02-11T05:52:47;103234.79;;;5.58;100.00
56070;BME280;41944;52.078;-0.058;2023-02-11T05:55:14;103236.88;;;5.62;100.00
56070;BME280;41944;52.078;-0.058;2023-02-11T05:57:41;103239.41;;;5.66;100.00
56070;BME280;41944;52.078;-0.058;2023-02-11T06:00:09;103240.40;;;5.72;100.00
56070;BME280;41944;52.078;-0.058;2023-02-11T06:02:36;103243.38;;;5.75;100.00
56070;BME280;41944;52.078;-0.058;2023-02-11T06:05:03;103243.17;;;5.80;100.00
56070;BME280;41944;52.078;-0.058;2023-02-11T06:07:30;103245.24;;;5.93;100.00
56070;BME280;41944;52.078;-0.058;2023-02-11T06:09:57;103243.97;;;6.11;100.00
56070;BME280;41944;52.078;-0.058;2023-02-11T06:12:25;103239.74;;;6.13;100.00
56070;BME280;41944;52.078;-0.058;2023-02-11T06:14:53;103241.08;;;6.25;100.00
56070;BME280;41944;52.078;-0.058;2023-02-11T06:17:20;103244.30;;;6.31;100.00
56070;BME280;41944;52.078;-0.058;2023-02-11T06:19:47;103247.03;;;6.31;100.00
56070;BME280;41944;52.078;-0.058;2023-02-11T06:22:14;103254.41;;;6.36;100.00
56070;BME280;41944;52.078;-0.058;2023-02-11T06:24:41;103256.80;;;6.47;100.00
56070;BME280;41944;52.078;-0.058;2023-02-11T06:27:08;103253.78;;;6.57;100.00
56070;BME280;41944;52.078;-0.058;2023-02-11T06:29:35;103253.47;;;6.74;100.00
56070;BME280;41944;52.078;-0.058;2023-02-11T06:32:03;103248.30;;;6.80;100.00
56070;BME280;41944;52.078;-0.058;2023-02-11T06:34:30;103252.72;;;6.89;100.00
56070;BME280;41944;52.078;-0.058;2023-02-11T06:36:57;103255.34;;;6.90;100.00
56070;BME280;41944;52.078;-0.058;2023-02-11T06:39:24;103257.57;;;6.99;100.00
56070;BME280;41944;52.078;-0.058;2023-02-11T06:41:51;103257.49;;;7.04;100.00
56070;BME280;41944;52.078;-0.058;2023-02-11T06:44:18;103262.25;;;7.20;100.00
56070;BME280;41944;52.078;-0.058;2023-02-11T06:46:44;103260.14;;;7.25;100.00
56070;BME280;41944;52.078;-0.058;2023-02-11T06:49:12;103260.45;;;7.45;100.00
56070;BME280;41944;52.078;-0.058;2023-02-11T06:51:38;103256.76;;;7.43;100.00
56070;BME280;41944;52.078;-0.058;2023-02-11T06:54:07;103259.21;;;7.44;100.00
56070;BME280;41944;52.078;-0.058;2023-02-11T06:56:34;103256.87;;;7.57;100.00
56070;BME280;41944;52.078;-0.058;2023-02-11T06:59:01;103260.38;;;7.60;100.00
56070;BME280;41944;52.078;-0.058;2023-02-11T07:01:28;103267.02;;;7.55;100.00
56070;BME280;41944;52.078;-0.058;2023-02-11T07:03:55;103271.94;;;7.56;100.00
56070;BME280;41944;52.078;-0.058;2023-02-11T07:06:25;103273.86;;;7.62;100.00
56070;BME280;41944;52.078;-0.058;2023-02-11T07:08:52;103275.56;;;7.66;100.00
56070;BME280;41944;52.078;-0.058;2023-02-11T07:11:21;103276.35;;;7.61;100.00
56070;BME280;41944;52.078;-0.058;2023-02-11T07:13:48;103274.19;;;7.73;100.00
56070;BME280;41944;52.078;-0.058;2023-02-11T07:16:17;103273.78;;;7.77;100.00
56070;BME280;41944;52.078;-0.058;2023-02-11T07:18:46;103276.09;;;7.90;100.00
56070;BME280;41944;52.078;-0.058;2023-02-11T07:21:16;103279.61;;;7.76;100.00
56070;BME280;41944;52.078;-0.058;2023-02-11T07:23:44;103282.79;;;7.79;100.00
56070;BME280;41944;52.078;-0.058;2023-02-11T07:26:13;103284.78;;;7.91;100.00
56070;BME280;41944;52.078;-0.058;2023-02-11T07:28:40;103289.38;;;7.84;100.00
56070;BME280;41944;52.078;-0.058;2023-02-11T07:31:08;103291.39;;;7.92;100.00
56070;BME280;41944;52.078;-0.058;2023-02-11T07:33:35;103290.90;;;7.95;100.00
56070;BME280;41944;52.078;-0.058;2023-02-11T07:36:05;103288.28;;;7.95;100.00
56070;BME280;41944;52.078;-0.058;2023-02-11T07:38:34;103289.51;;;7.93;100.00
56070;BME280;41944;52.078;-0.058;2023-02-11T07:41:04;103295.03;;;7.81;100.00
56070;BME280;41944;52.078;-0.058;2023-02-11T07:43:32;103295.02;;;7.84;100.00
56070;BME280;41944;52.078;-0.058;2023-02-11T07:46:02;103293.77;;;7.90;100.00
56070;BME280;41944;52.078;-0.058;2023-02-11T07:48:30;103293.57;;;7.80;100.00
56070;BME280;41944;52.078;-0.058;2023-02-11T07:51:05;103294.73;;;7.82;100.00
56070;BME280;41944;52.078;-0.058;2023-02-11T07:53:32;103296.79;;;7.83;100.00
56070;BME280;41944;52.078;-0.058;2023-02-11T07:55:59;103298.16;;;7.83;100.00
56070;BME280;41944;52.078;-0.058;2023-02-11T07:58:26;103305.92;;;7.91;100.00
56070;BME280;41944;52.078;-0.058;2023-02-11T08:00:53;103308.37;;;7.95;100.00
56070;BME280;41944;52.078;-0.058;2023-02-11T08:03:20;103311.17;;;7.95;100.00
56070;BME280;41944;52.078;-0.058;2023-02-11T08:05:46;103311.36;;;7.90;100.00
56070;BME280;41944;52.078;-0.058;2023-02-11T08:08:13;103312.84;;;8.06;100.00
56070;BME280;41944;52.078;-0.058;2023-02-11T08:10:40;103308.75;;;8.08;100.00
56070;BME280;41944;52.078;-0.058;2023-02-11T08:13:07;103306.82;;;8.15;100.00
56070;BME280;41944;52.078;-0.058;2023-02-11T08:15:34;103307.25;;;8.06;100.00
56070;BME280;41944;52.078;-0.058;2023-02-11T08:18:01;103305.68;;;8.02;100.00
56070;BME280;41944;52.078;-0.058;2023-02-11T08:20:28;103303.77;;;8.05;100.00
56070;BME280;41944;52.078;-0.058;2023-02-11T08:22:55;103303.85;;;8.28;100.00
56070;BME280;41944;52.078;-0.058;2023-02-11T08:25:23;103308.16;;;8.17;100.00
56070;BME280;41944;52.078;-0.058;2023-02-11T08:27:49;103309.45;;;8.33;100.00
56070;BME280;41944;52.078;-0.058;2023-02-11T08:30:17;103311.24;;;8.34;100.00
56070;BME280;41944;52.078;-0.058;2023-02-11T08:32:43;103316.31;;;8.30;100.00
56070;BME280;41944;52.078;-0.058;2023-02-11T08:35:10;103316.35;;;8.49;100.00
56070;BME280;41944;52.078;-0.058;2023-02-11T08:37:37;103317.38;;;8.49;100.00
56070;BME280;41944;52.078;-0.058;2023-02-11T08:40:05;103320.04;;;8.53;100.00
56070;BME280;41944;52.078;-0.058;2023-02-11T08:42:32;103319.21;;;8.51;100.00
56070;BME280;41944;52.078;-0.058;2023-02-11T08:44:59;103320.74;;;8.54;100.00
56070;BME280;41944;52.078;-0.058;2023-02-11T08:47:26;103325.35;;;8.54;100.00
56070;BME280;41944;52.078;-0.058;2023-02-11T08:49:53;103329.39;;;8.66;100.00
56070;BME280;41944;52.078;-0.058;2023-02-11T08:52:20;103333.31;;;8.65;100.00
56070;BME280;41944;52.078;-0.058;2023-02-11T08:54:48;103336.29;;;8.72;100.00
56070;BME280;41944;52.078;-0.058;2023-02-11T08:57:15;103336.83;;;8.76;100.00
56070;BME280;41944;52.078;-0.058;2023-02-11T08:59:42;103339.64;;;8.88;100.00
56070;BME280;41944;52.078;-0.058;2023-02-11T09:02:10;103340.54;;;8.71;100.00
56070;BME280;41944;52.078;-0.058;2023-02-11T09:04:38;103340.87;;;8.87;100.00
56070;BME280;41944;52.078;-0.058;2023-02-11T09:07:06;103340.53;;;8.94;100.00
56070;BME280;41944;52.078;-0.058;2023-02-11T09:09:34;103338.68;;;8.90;100.00
56070;BME280;41944;52.078;-0.058;2023-02-11T09:12:01;103336.70;;;9.01;100.00
56070;BME280;41944;52.078;-0.058;2023-02-11T09:14:28;103332.44;;;9.00;100.00
56070;BME280;41944;52.078;-0.058;2023-02-11T09:16:55;103325.15;;;9.12;100.00
56070;BME280;41944;52.078;-0.058;2023-02-11T09:19:22;103325.75;;;9.20;100.00
56070;BME280;41944;52.078;-0.058;2023-02-11T09:21:50;103331.46;;;9.20;100.00
56070;BME280;41944;52.078;-0.058;2023-02-11T09:24:17;103332.30;;;9.22;100.00
56070;BME280;41944;52.078;-0.058;2023-02-11T09:26:44;103332.19;;;9.22;100.00
56070;BME280;41944;52.078;-0.058;2023-02-11T09:29:12;103337.67;;;9.15;100.00
56070;BME280;41944;52.078;-0.058;2023-02-11T09:31:39;103339.67;;;9.26;100.00
56070;BME280;41944;52.078;-0.058;2023-02-11T09:34:07;103338.41;;;9.26;100.00
56070;BME280;41944;52.078;-0.058;2023-02-11T09:36:37;103340.32;;;9.22;100.00
56070;BME280;41944;52.078;-0.058;2023-02-11T09:39:06;103336.86;;;9.24;100.00
56070;BME280;41944;52.078;-0.058;2023-02-11T09:42:00;103336.92;;;9.27;100.00
56070;BME280;41944;52.078;-0.058;2023-02-11T09:44:32;103332.24;;;9.45;100.00
56070;BME280;41944;52.078;-0.058;2023-02-11T09:47:02;103335.80;;;9.42;100.00
56070;BME280;41944;52.078;-0.058;2023-02-11T09:49:35;103342.44;;;9.50;100.00
56070;BME280;41944;52.078;-0.058;2023-02-11T09:52:10;103344.60;;;9.59;100.00
56070;BME280;41944;52.078;-0.058;2023-02-11T09:54:50;103342.85;;;9.63;100.00
56070;BME280;41944;52.078;-0.058;2023-02-11T09:57:19;103340.87;;;9.84;100.00
56070;BME280;41944;52.078;-0.058;2023-02-11T09:59:47;103339.58;;;9.83;100.00
56070;BME280;41944;52.078;-0.058;2023-02-11T10:02:19;103333.60;;;9.78;100.00
56070;BME280;41944;52.078;-0.058;2023-02-11T10:05:11;103331.83;;;9.80;100.00
56070;BME280;41944;52.078;-0.058;2023-02-11T10:07:47;103338.07;;;9.88;100.00
56070;BME280;41944;52.078;-0.058;2023-02-11T10:10:33;103347.07;;;10.13;100.00
56070;BME280;41944;52.078;-0.058;2023-02-11T10:13:20;103345.88;;;10.25;100.00
56070;BME280;41944;52.078;-0.058;2023-02-11T10:15:55;103341.08;;;10.34;99.75
56070;BME280;41944;52.078;-0.058;2023-02-11T10:18:38;103335.77;;;10.33;99.90
56070;BME280;41944;52.078;-0.058;2023-02-11T10:21:17;103339.68;;;10.31;100.00
56070;BME280;41944;52.078;-0.058;2023-02-11T10:23:49;103343.25;;;10.44;99.09
56070;BME280;41944;52.078;-0.058;2023-02-11T10:26:18;103352.66;;;10.54;97.90
56070;BME280;41944;52.078;-0.058;2023-02-11T10:28:46;103352.17;;;10.41;98.57
56070;BME280;41944;52.078;-0.058;2023-02-11T10:31:16;103348.72;;;10.39;99.11
56070;BME280;41944;52.078;-0.058;2023-02-11T10:33:50;103343.93;;;10.45;98.77
56070;BME280;41944;52.078;-0.058;2023-02-11T10:36:23;103342.40;;;10.61;98.11
56070;BME280;41944;52.078;-0.058;2023-02-11T10:38:51;103352.01;;;10.69;96.66
56070;BME280;41944;52.078;-0.058;2023-02-11T10:41:21;103350.55;;;10.70;96.81
56070;BME280;41944;52.078;-0.058;2023-02-11T10:43:50;103351.42;;;10.67;97.26
56070;BME280;41944;52.078;-0.058;2023-02-11T10:46:21;103349.92;;;10.69;96.84
56070;BME280;41944;52.078;-0.058;2023-02-11T10:48:51;103353.93;;;11.01;95.01
56070;BME280;41944;52.078;-0.058;2023-02-11T10:51:21;103355.03;;;11.10;92.75
56070;BME280;41944;52.078;-0.058;2023-02-11T10:53:57;103350.19;;;11.19;91.10
56070;BME280;41944;52.078;-0.058;2023-02-11T10:56:37;103346.82;;;11.20;92.79
56070;BME280;41944;52.078;-0.058;2023-02-11T10:59:14;103347.36;;;11.36;90.21
56070;BME280;41944;52.078;-0.058;2023-02-11T11:01:45;103356.20;;;11.50;87.70
56070;BME280;41944;52.078;-0.058;2023-02-11T11:04:45;103359.21;;;11.49;88.39
56070;BME280;41944;52.078;-0.058;2023-02-11T11:07:17;103353.78;;;11.41;90.90
56070;BME280;41944;52.078;-0.058;2023-02-11T11:09:49;103353.95;;;11.64;88.77
56070;BME280;41944;52.078;-0.058;2023-02-11T11:12:26;103348.97;;;11.83;85.24
56070;BME280;41944;52.078;-0.058;2023-02-11T11:14:55;103348.08;;;11.80;84.04
56070;BME280;41944;52.078;-0.058;2023-02-11T11:17:22;103352.13;;;11.77;84.97
56070;BME280;41944;52.078;-0.058;2023-02-11T11:19:49;103355.68;;;11.85;84.28
56070;BME280;41944;52.078;-0.058;2023-02-11T11:22:20;103356.81;;;11.83;84.78
56070;BME280;41944;52.078;-0.058;2023-02-11T11:24:48;103358.41;;;11.83;84.78
56070;BME280;41944;52.078;-0.058;2023-02-11T11:27:17;103350.46;;;11.96;82.89
56070;BME280;41944;52.078;-0.058;2023-02-11T11:29:47;103351.72;;;12.02;80.31
56070;BME280;41944;52.078;-0.058;2023-02-11T11:32:20;103354.31;;;12.07;79.98
56070;BME280;41944;52.078;-0.058;2023-02-11T11:34:50;103356.42;;;12.03;80.65
56070;BME280;41944;52.078;-0.058;2023-02-11T11:37:21;103358.02;;;12.00;80.39
56070;BME280;41944;52.078;-0.058;2023-02-11T11:39:55;103352.82;;;12.02;81.39
56070;BME280;41944;52.078;-0.058;2023-02-11T11:42:26;103352.88;;;12.08;79.71
56070;BME280;41944;52.078;-0.058;2023-02-11T11:44:57;103355.91;;;12.16;79.08
56070;BME280;41944;52.078;-0.058;2023-02-11T11:47:28;103361.02;;;12.24;77.14
56070;BME280;41944;52.078;-0.058;2023-02-11T11:50:13;103363.70;;;12.16;77.32
56070;BME280;41944;52.078;-0.058;2023-02-11T11:52:47;103361.75;;;12.05;79.30
56070;BME280;41944;52.078;-0.058;2023-02-11T11:55:21;103361.10;;;12.15;79.03
56070;BME280;41944;52.078;-0.058;2023-02-11T11:57:49;103358.47;;;12.11;79.00
56070;BME280;41944;52.078;-0.058;2023-02-11T12:00:19;103356.75;;;12.24;77.41
56070;BME280;41944;52.078;-0.058;2023-02-11T12:03:09;103361.30;;;12.27;76.84
56070;BME280;41944;52.078;-0.058;2023-02-11T12:05:47;103356.63;;;12.34;76.90
56070;BME280;41944;52.078;-0.058;2023-02-11T12:08:24;103351.87;;;12.35;76.04
56070;BME280;41944;52.078;-0.058;2023-02-11T12:11:03;103351.79;;;12.40;75.88
56070;BME280;41944;52.078;-0.058;2023-02-11T12:13:42;103355.81;;;12.47;75.46
56070;BME280;41944;52.078;-0.058;2023-02-11T12:16:21;103352.72;;;12.42;75.30
56070;BME280;41944;52.078;-0.058;2023-02-11T12:19:08;103356.53;;;12.31;75.84
56070;BME280;41944;52.078;-0.058;2023-02-11T12:21:49;103354.16;;;12.31;74.87
56070;BME280;41944;52.078;-0.058;2023-02-11T12:24:34;103349.21;;;12.17;72.22
56070;BME280;41944;52.078;-0.058;2023-02-11T12:27:08;103344.69;;;12.19;72.79
56070;BME280;41944;52.078;-0.058;2023-02-11T12:29:46;103348.85;;;12.31;72.51
56070;BME280;41944;52.078;-0.058;2023-02-11T12:32:26;103349.27;;;12.35;71.44
56070;BME280;41944;52.078;-0.058;2023-02-11T12:35:35;103348.82;;;12.26;70.83
56070;BME280;41944;52.078;-0.058;2023-02-11T12:38:19;103343.18;;;12.16;72.07
56070;BME280;41944;52.078;-0.058;2023-02-11T12:41:00;103344.34;;;12.15;72.43
56070;BME280;41944;52.078;-0.058;2023-02-11T12:43:35;103348.19;;;12.20;72.21
56070;BME280;41944;52.078;-0.058;2023-02-11T12:46:14;103349.37;;;12.17;72.40
56070;BME280;41944;52.078;-0.058;2023-02-11T12:49:03;103346.50;;;12.23;71.88
56070;BME280;41944;52.078;-0.058;2023-02-11T12:51:48;103341.60;;;12.03;73.18
56070;BME280;41944;52.078;-0.058;2023-02-11T12:54:23;103348.04;;;11.85;74.15
56070;BME280;41944;52.078;-0.058;2023-02-11T12:56:58;103351.93;;;11.84;74.38
56070;BME280;41944;52.078;-0.058;2023-02-11T12:59:33;103353.83;;;11.91;74.20